Time;durP1;ratioP1;P1;durP2;ratioP2;P2;SDS_P1;SDS_P2;PMS_P1;PMS_P2;Temp;Humidity;BMP_temperature;BMP_pressure;BME280_temperature;BME280_humidity;BME280_pressure;Samples;Min_cycle;Max_cycle;Signal;HPM_P1;HPM_P2
2023/04/12 00:01:39;;;;;;;2.70;1.60;;;6.70;99.90;;;;;;5133329;27;20174;-79
2023/04/12 00:04:04;;;;;;;4.17;1.50;;;6.70;99.90;;;;;;5134547;27;20194;-79
2023/04/12 00:06:35;;;;;;;1.73;1.27;;;6.70;99.90;;;;;;5133985;27;20182;-80
2023/04/12 00:09:01;;;;;;;2.63;1.30;;;6.70;99.90;;;;;;5134916;27;20194;-80
2023/04/12 00:11:27;;;;;;;1.77;1.23;;;6.70;99.90;;;;;;5133146;27;20193;-79
2023/04/12 00:13:53;;;;;;;1.93;1.30;;;6.70;99.90;;;;;;5134719;27;20251;-79
2023/04/12 00:16:19;;;;;;;3.00;1.23;;;6.80;99.90;;;;;;5134430;27;20171;-80
2023/04/12 00:18:45;;;;;;;2.00;1.20;;;6.80;99.90;;;;;;5133292;27;20165;-79
2023/04/12 00:21:11;;;;;;;3.20;1.43;;;6.80;99.90;;;;;;5134257;27;20221;-79
2023/04/12 00:23:36;;;;;;;1.70;1.33;;;6.90;99.90;;;;;;5134271;27;20198;-79
2023/04/12 00:26:03;;;;;;;4.27;1.60;;;6.90;99.90;;;;;;5133287;27;20170;-79
2023/04/12 00:28:29;;;;;;;2.53;1.53;;;6.80;99.90;;;;;;5133399;27;20263;-79
2023/04/12 00:30:54;;;;;;;5.60;1.80;;;6.70;99.90;;;;;;5133624;27;20289;-80
2023/04/12 00:33:20;;;;;;;2.47;1.60;;;6.70;99.90;;;;;;5134452;27;20568;-80
2023/04/12 00:35:45;;;;;;;3.47;1.70;;;6.60;99.90;;;;;;5133387;27;20201;-80
2023/04/12 00:38:11;;;;;;;3.67;1.40;;;6.60;99.90;;;;;;5133216;27;20641;-80
2023/04/12 00:40:41;;;;;;;3.10;1.40;;;6.50;99.90;;;;;;5133629;27;20229;-80
2023/04/12 00:43:07;;;;;;;1.93;1.30;;;6.50;99.90;;;;;;5134274;27;20195;-80
2023/04/12 00:45:33;;;;;;;2.83;1.60;;;6.60;99.90;;;;;;5134385;27;20177;-80
2023/04/12 00:47:59;;;;;;;4.00;1.57;;;6.60;99.90;;;;;;5133177;27;20208;-80
2023/04/12 00:50:24;;;;;;;2.87;1.50;;;6.70;99.90;;;;;;5132611;27;20231;-80
2023/04/12 00:52:50;;;;;;;1.60;1.50;;;6.70;99.90;;;;;;5134103;27;20167;-79
2023/04/12 00:55:16;;;;;;;2.23;1.53;;;6.60;99.90;;;;;;5134306;27;20171;-79
2023/04/12 00:57:42;;;;;;;2.63;1.53;;;6.60;99.90;;;;;;5132679;27;20167;-80
2023/04/12 01:00:12;;;;;;;2.73;1.60;;;6.50;99.90;;;;;;5132257;27;20175;-79
2023/04/12 01:02:41;;;;;;;2.90;1.70;;;6.50;99.90;;;;;;5134146;27;20174;-80
2023/04/12 01:05:07;;;;;;;2.50;1.50;;;6.50;99.90;;;;;;5132806;27;20210;-80
2023/04/12 01:07:43;;;;;;;3.70;1.53;;;6.50;99.90;;;;;;5134302;27;20182;-80
2023/04/12 01:10:22;;;;;;;3.30;1.53;;;6.60;99.90;;;;;;5132494;27;20199;-79
2023/04/12 01:13:09;;;;;;;3.53;1.50;;;6.60;99.90;;;;;;5132819;27;20169;-78
2023/04/12 01:15:40;;;;;;;1.90;1.40;;;6.50;99.90;;;;;;5132821;27;20166;-79
2023/04/12 01:18:16;;;;;;;4.17;1.47;;;6.50;99.90;;;;;;5132502;27;20247;-79
2023/04/12 01:20:50;;;;;;;4.60;1.57;;;6.40;99.90;;;;;;5133316;27;20550;-79
2023/04/12 01:23:53;;;;;;;2.87;2.00;;;6.40;99.90;;;;;;5132381;27;20234;-79
2023/04/12 01:26:37;;;;;;;2.30;1.50;;;6.30;99.90;;;;;;5133714;27;20175;-79
2023/04/12 01:29:09;;;;;;;2.30;1.50;;;6.30;99.90;;;;;;5132126;27;20266;-79
2023/04/12 01:31:38;;;;;;;3.27;1.83;;;6.30;99.90;;;;;;5132834;27;20182;-79
2023/04/12 01:34:06;;;;;;;5.27;2.00;;;6.30;99.90;;;;;;5132267;28;20208;-79
2023/04/12 01:36:33;;;;;;;2.93;1.70;;;6.20;99.90;;;;;;5133540;27;20181;-80
2023/04/12 01:38:59;;;;;;;2.57;1.60;;;6.30;99.90;;;;;;5133666;27;20175;-81
2023/04/12 01:41:31;;;;;;;3.10;1.53;;;6.40;99.90;;;;;;5133120;27;20177;-80
2023/04/12 01:43:57;;;;;;;2.43;1.33;;;6.50;99.90;;;;;;5133510;27;20221;-80
2023/04/12 01:46:23;;;;;;;3.57;1.43;;;6.50;99.90;;;;;;5133893;27;20178;-80
2023/04/12 01:48:51;;;;;;;4.37;1.50;;;6.60;99.90;;;;;;5133648;27;20167;-80
2023/04/12 01:51:19;;;;;;;2.57;1.30;;;6.70;99.90;;;;;;5132851;27;20262;-79
2023/04/12 01:53:49;;;;;;;2.57;1.30;;;6.80;99.90;;;;;;5136395;27;20198;-79
2023/04/12 01:56:17;;;;;;;3.73;1.60;;;6.90;99.90;;;;;;5136262;27;20174;-79
2023/04/12 01:58:45;;;;;;;5.03;1.70;;;7.00;99.90;;;;;;5136246;27;20211;-80
2023/04/12 02:01:15;;;;;;;4.70;1.37;;;7.10;99.90;;;;;;5135916;27;20210;-80
2023/04/12 02:03:41;;;;;;;4.57;1.83;;;7.20;99.90;;;;;;5137586;27;20228;-80
2023/04/12 02:06:08;;;;;;;3.40;1.50;;;7.40;99.90;;;;;;5136359;27;20204;-80
2023/04/12 02:08:34;;;;;;;2.00;1.70;;;7.40;99.90;;;;;;5135791;27;20182;-80
2023/04/12 02:11:00;;;;;;;4.10;2.00;;;7.30;99.90;;;;;;5136779;27;20231;-80
2023/04/12 02:13:25;;;;;;;2.90;2.27;;;7.10;99.90;;;;;;5137413;27;20201;-79
2023/04/12 02:15:53;;;;;;;3.47;2.27;;;6.90;99.90;;;;;;5137297;27;20258;-79
2023/04/12 02:18:19;;;;;;;4.43;2.00;;;6.80;99.90;;;;;;5135955;27;20171;-80
2023/04/12 02:20:45;;;;;;;4.20;1.80;;;6.70;99.90;;;;;;5135637;27;20204;-79
2023/04/12 02:23:11;;;;;;;3.83;2.23;;;6.60;99.90;;;;;;5137167;27;20687;-80
2023/04/12 02:25:38;;;;;;;3.30;1.77;;;6.60;99.90;;;;;;5135564;27;20172;-80
2023/04/12 02:28:05;;;;;;;2.90;2.10;;;6.60;99.90;;;;;;5135940;27;20182;-80
2023/04/12 02:30:31;;;;;;;3.63;1.97;;;6.50;99.90;;;;;;5136232;27;20217;-79
2023/04/12 02:32:57;;;;;;;2.33;1.67;;;6.50;99.90;;;;;;5136848;27;20265;-79
2023/04/12 02:35:23;;;;;;;3.10;1.90;;;6.50;99.90;;;;;;5135654;27;20169;-79
2023/04/12 02:37:50;;;;;;;3.10;1.70;;;6.60;99.90;;;;;;5135419;27;20175;-80
2023/04/12 02:40:16;;;;;;;3.53;1.80;;;6.70;99.90;;;;;;5135959;27;20178;-80
2023/04/12 02:42:42;;;;;;;4.57;1.80;;;6.90;99.90;;;;;;5135598;27;20189;-79
2023/04/12 02:45:09;;;;;;;4.70;1.77;;;7.00;99.90;;;;;;5135590;27;20238;-80
2023/04/12 02:47:34;;;;;;;2.73;1.37;;;7.20;99.90;;;;;;5136675;27;20171;-79
2023/04/12 02:50:01;;;;;;;2.70;1.20;;;7.40;99.90;;;;;;5136209;27;20201;-79
2023/04/12 02:52:28;;;;;;;4.30;1.60;;;7.50;99.90;;;;;;5135746;27;20174;-79
2023/04/12 02:54:57;;;;;;;5.37;1.43;;;7.60;99.90;;;;;;5136950;27;20203;-80
2023/04/12 02:57:22;;;;;;;6.63;1.60;;;7.70;99.90;;;;;;5136689;27;20254;-80
2023/04/12 02:59:53;;;;;;;2.43;1.33;;;7.80;99.90;;;;;;5134606;27;20620;-79
2023/04/12 03:02:20;;;;;;;2.80;1.33;;;8.00;99.90;;;;;;5134607;27;20190;-79
2023/04/12 03:04:49;;;;;;;2.13;1.17;;;8.10;99.90;;;;;;5136127;27;20669;-80
2023/04/12 03:07:17;;;;;;;2.80;1.30;;;8.10;99.90;;;;;;5135076;27;20206;-80
2023/04/12 03:09:44;;;;;;;3.70;1.30;;;8.00;99.90;;;;;;5135639;27;20299;-79
2023/04/12 03:12:10;;;;;;;4.17;1.50;;;7.90;99.90;;;;;;5135147;27;20176;-80
2023/04/12 03:14:35;;;;;;;1.97;1.30;;;7.90;99.90;;;;;;5134749;27;20198;-80
2023/04/12 03:17:01;;;;;;;3.20;1.17;;;7.90;99.90;;;;;;5134621;27;20203;-79
2023/04/12 03:19:27;;;;;;;7.20;1.57;;;7.80;99.90;;;;;;5136347;27;20180;-79
2023/04/12 03:21:53;;;;;;;3.50;1.30;;;7.80;99.90;;;;;;5135346;27;20196;-79
2023/04/12 03:24:19;;;;;;;4.60;1.47;;;7.70;99.90;;;;;;5128230;27;20198;-79
2023/04/12 03:26:45;;;;;;;2.50;1.40;;;7.70;99.90;;;;;;5135771;27;20182;-79
2023/04/12 03:29:10;;;;;;;2.57;1.30;;;7.60;99.90;;;;;;5135788;27;20186;-79
2023/04/12 03:31:36;;;;;;;2.57;1.40;;;7.60;99.90;;;;;;5133954;27;20250;-79
2023/04/12 03:34:02;;;;;;;3.10;1.13;;;7.60;99.90;;;;;;5134349;27;20194;-80
2023/04/12 03:36:28;;;;;;;2.33;1.50;;;7.60;99.90;;;;;;5135645;27;20171;-79
2023/04/12 03:38:54;;;;;;;4.70;1.60;;;7.70;99.90;;;;;;5135645;27;20178;-79
2023/04/12 03:41:24;;;;;;;3.73;1.47;;;7.70;99.90;;;;;;5134893;27;20204;-80
2023/04/12 03:43:50;;;;;;;5.20;1.60;;;7.70;99.90;;;;;;5135294;27;20183;-80
2023/04/12 03:46:16;;;;;;;4.73;1.47;;;7.70;99.90;;;;;;5135236;27;20167;-80
2023/04/12 03:48:41;;;;;;;7.63;1.80;;;7.60;99.90;;;;;;5135620;27;20215;-80
2023/04/12 03:51:10;;;;;;;4.60;1.70;;;7.60;99.90;;;;;;5133811;27;20213;-80
2023/04/12 03:53:37;;;;;;;4.43;1.30;;;7.60;99.90;;;;;;5135231;27;20764;-80
2023/04/12 03:56:02;;;;;;;2.53;1.33;;;7.50;99.90;;;;;;5134274;27;20170;-80
2023/04/12 03:58:28;;;;;;;2.47;1.50;;;7.50;99.90;;;;;;5133857;27;20523;-80
2023/04/12 04:00:54;;;;;;;5.70;1.87;;;7.50;99.90;;;;;;5134769;27;20193;-80
2023/04/12 04:03:21;;;;;;;3.83;1.80;;;7.50;99.90;;;;;;5135266;27;20203;-80
2023/04/12 04:05:47;;;;;;;7.13;1.90;;;7.50;99.90;;;;;;5133831;27;20178;-80
2023/04/12 04:08:13;;;;;;;3.40;1.50;;;7.40;99.90;;;;;;5133916;27;20181;-80
2023/04/12 04:10:38;;;;;;;4.00;1.43;;;7.50;99.90;;;;;;5134323;27;20187;-80
2023/04/12 04:13:04;;;;;;;3.70;1.60;;;7.40;99.90;;;;;;5133693;27;20193;-80
2023/04/12 04:15:29;;;;;;;4.30;1.43;;;7.40;99.90;;;;;;5132928;27;20167;-79
2023/04/12 04:17:55;;;;;;;4.40;1.67;;;7.30;99.90;;;;;;5133509;27;20177;-80
2023/04/12 04:20:21;;;;;;;4.63;1.60;;;7.30;99.90;;;;;;5132981;27;20178;-80
2023/04/12 04:22:47;;;;;;;4.50;1.70;;;7.30;99.90;;;;;;5134686;27;20181;-80
2023/04/12 04:25:13;;;;;;;3.27;1.70;;;7.30;99.90;;;;;;5133488;27;20573;-80
2023/04/12 04:27:45;;;;;;;3.00;1.53;;;7.30;99.90;;;;;;5124675;27;20516;-81
2023/04/12 04:30:12;;;;;;;5.07;1.60;;;7.20;99.90;;;;;;5132697;27;20202;-80
2023/04/12 04:32:38;;;;;;;3.50;1.57;;;7.20;99.90;;;;;;5133495;27;20167;-80
2023/04/12 04:35:04;;;;;;;3.50;1.57;;;7.10;99.90;;;;;;5135969;27;20190;-80
2023/04/12 04:37:30;;;;;;;4.03;1.70;;;7.10;99.90;;;;;;5134394;27;20194;-82
2023/04/12 04:39:56;;;;;;;4.70;1.50;;;7.10;99.90;;;;;;5132660;27;20177;-80
2023/04/12 04:42:23;;;;;;;5.00;1.80;;;7.10;99.90;;;;;;5133029;27;20182;-81
2023/04/12 04:44:59;;;;;;;4.70;1.63;;;7.10;99.90;;;;;;5134506;27;20190;-81
2023/04/12 04:47:24;;;;;;;3.67;1.57;;;7.10;99.90;;;;;;5133239;27;20193;-80
2023/04/12 04:49:50;;;;;;;2.03;1.60;;;7.10;99.90;;;;;;5132871;27;20244;-81
2023/04/12 04:52:17;;;;;;;3.93;1.87;;;7.00;99.90;;;;;;5135068;27;20245;-80
2023/04/12 04:54:42;;;;;;;5.47;2.17;;;7.00;99.90;;;;;;5129813;27;20190;-80
2023/04/12 04:57:10;;;;;;;6.10;1.80;;;7.10;99.90;;;;;;5134049;27;20186;-81
2023/04/12 04:59:36;;;;;;;4.07;1.60;;;7.00;99.90;;;;;;5132737;27;20226;-78
2023/04/12 05:02:02;;;;;;;4.33;1.60;;;7.00;99.90;;;;;;5132948;27;20220;-81
2023/04/12 05:04:27;;;;;;;3.50;1.50;;;7.00;99.90;;;;;;5134706;27;20217;-81
2023/04/12 05:06:53;;;;;;;5.13;1.97;;;7.00;99.90;;;;;;5136899;27;20713;-81
2023/04/12 05:09:19;;;;;;;1.87;1.43;;;7.00;99.90;;;;;;5135978;27;20318;-80
2023/04/12 05:11:45;;;;;;;3.33;1.90;;;7.00;99.90;;;;;;5135473;27;20171;-80
2023/04/12 05:14:11;;;;;;;3.57;1.80;;;7.00;99.90;;;;;;5136222;27;20189;-81
2023/04/12 05:16:36;;;;;;;4.50;1.80;;;7.00;99.90;;;;;;5128471;27;20170;-81
2023/04/12 05:19:02;;;;;;;4.83;1.93;;;7.00;99.90;;;;;;5137659;27;20178;-80
2023/04/12 05:21:28;;;;;;;4.93;2.10;;;7.00;99.90;;;;;;5136118;27;20176;-84
2023/04/12 05:23:53;;;;;;;2.93;1.87;;;6.90;99.90;;;;;;5139487;27;20588;-83
2023/04/12 05:26:20;;;;;;;4.30;1.90;;;7.00;99.90;;;;;;5139551;27;20534;-84
2023/04/12 05:28:46;;;;;;;5.43;2.30;;;6.90;99.90;;;;;;5132153;27;20170;-83
2023/04/12 05:31:11;;;;;;;8.70;2.33;;;6.90;99.90;;;;;;5131785;28;20201;-83
2023/04/12 05:33:37;;;;;;;4.07;2.07;;;7.00;99.90;;;;;;5132029;28;20294;-83
2023/04/12 05:36:03;;;;;;;6.10;2.07;;;7.00;99.90;;;;;;5131987;28;20181;-83
2023/04/12 05:38:29;;;;;;;4.70;2.10;;;7.00;99.90;;;;;;5132331;28;20265;-83
2023/04/12 05:40:54;;;;;;;3.43;2.10;;;7.00;99.90;;;;;;5131352;28;20269;-83
2023/04/12 05:43:20;;;;;;;4.10;2.23;;;7.00;99.90;;;;;;5133145;28;20275;-79
2023/04/12 05:45:45;;;;;;;3.97;2.50;;;7.00;99.90;;;;;;5132712;28;20271;-81
2023/04/12 05:48:12;;;;;;;4.17;2.10;;;7.00;99.90;;;;;;5135382;27;20603;-81
2023/04/12 05:50:38;;;;;;;4.90;2.17;;;7.00;99.90;;;;;;5134442;28;20202;-82
2023/04/12 05:53:03;;;;;;;4.10;2.27;;;7.00;99.90;;;;;;5135793;27;20728;-82
2023/04/12 05:55:29;;;;;;;4.33;2.17;;;7.00;99.90;;;;;;5134640;28;20208;-83
2023/04/12 05:57:54;;;;;;;3.17;1.87;;;7.10;99.90;;;;;;5136358;27;20199;-81
2023/04/12 06:00:20;;;;;;;2.97;1.77;;;7.10;99.90;;;;;;5133887;28;20174;-82
2023/04/12 06:02:47;;;;;;;3.60;1.90;;;7.20;99.90;;;;;;5133249;28;20224;-82
2023/04/12 06:05:13;;;;;;;4.13;1.87;;;7.20;99.90;;;;;;5133602;27;20182;-82
2023/04/12 06:07:41;;;;;;;3.10;1.80;;;7.20;99.90;;;;;;5134477;27;20182;-79
2023/04/12 06:10:07;;;;;;;3.03;1.87;;;7.20;99.90;;;;;;5134119;27;20212;-81
2023/04/12 06:12:33;;;;;;;3.53;1.50;;;7.20;99.90;;;;;;5134169;27;20249;-81
2023/04/12 06:14:59;;;;;;;2.27;1.50;;;7.20;99.90;;;;;;5132450;28;20254;-81
2023/04/12 06:17:25;;;;;;;2.73;1.53;;;7.20;99.90;;;;;;5132281;28;20169;-82
2023/04/12 06:19:50;;;;;;;2.70;1.70;;;7.30;99.90;;;;;;5132862;27;20592;-81
2023/04/12 06:22:16;;;;;;;3.10;1.63;;;7.30;99.90;;;;;;5131847;28;20178;-81
2023/04/12 06:24:41;;;;;;;4.30;1.53;;;7.40;99.90;;;;;;5133787;27;20201;-80
2023/04/12 06:27:07;;;;;;;2.97;1.30;;;7.30;99.90;;;;;;5132659;28;20268;-80
2023/04/12 06:29:33;;;;;;;3.43;1.53;;;7.30;99.90;;;;;;5133387;27;20205;-82
2023/04/12 06:31:59;;;;;;;2.23;1.30;;;7.30;99.90;;;;;;5133310;27;20178;-81
2023/04/12 06:34:24;;;;;;;3.40;1.40;;;7.40;99.90;;;;;;5133557;27;20256;-81
2023/04/12 06:36:50;;;;;;;2.43;1.50;;;7.40;99.90;;;;;;5134250;27;20178;-81
2023/04/12 06:39:15;;;;;;;2.23;1.40;;;7.40;99.90;;;;;;5136296;27;20180;-81
2023/04/12 06:41:46;;;;;;;1.10;1.00;;;7.50;99.90;;;;;;5135710;27;20171;-82
2023/04/12 06:44:12;;;;;;;2.70;1.20;;;7.50;99.90;;;;;;5136671;27;20220;-81
2023/04/12 06:46:37;;;;;;;1.30;1.20;;;7.50;99.90;;;;;;5136965;27;20175;-82
2023/04/12 06:49:03;;;;;;;1.90;1.10;;;7.50;99.90;;;;;;5137111;27;20174;-81
2023/04/12 06:51:29;;;;;;;1.20;1.03;;;7.60;99.90;;;;;;5136035;27;20216;-81
2023/04/12 06:53:56;;;;;;;2.07;1.37;;;7.60;99.90;;;;;;5137071;27;20213;-81
2023/04/12 06:56:22;;;;;;;2.13;1.40;;;7.60;99.90;;;;;;5115896;27;20164;-82
2023/04/12 06:58:47;;;;;;;2.17;1.27;;;7.60;99.90;;;;;;5113905;28;20182;-81
2023/04/12 07:01:13;;;;;;;2.77;1.20;;;7.60;99.90;;;;;;5115302;28;20183;-81
2023/04/12 07:03:39;;;;;;;1.30;1.20;;;7.60;99.90;;;;;;5116015;28;20194;-81
2023/04/12 07:06:05;;;;;;;2.80;1.30;;;7.60;99.90;;;;;;5116317;28;20189;-82
2023/04/12 07:08:35;;;;;;;2.53;1.10;;;7.70;99.90;;;;;;5114888;28;20175;-81
2023/04/12 07:11:01;;;;;;;1.37;1.20;;;7.70;99.90;;;;;;5115413;28;20209;-81
2023/04/12 07:13:27;;;;;;;1.53;1.03;;;7.70;99.90;;;;;;5114696;28;20209;-81
2023/04/12 07:15:53;;;;;;;1.80;1.10;;;7.60;99.90;;;;;;5114567;28;20649;-81
2023/04/12 07:18:19;;;;;;;3.33;1.10;;;7.60;99.90;;;;;;5115679;28;20250;-81
2023/04/12 07:20:52;;;;;;;2.17;1.20;;;7.60;99.90;;;;;;5115488;28;20181;-82
2023/04/12 07:23:18;;;;;;;1.17;1.00;;;7.60;99.90;;;;;;5114465;28;20200;-81
2023/04/12 07:25:43;;;;;;;1.50;1.10;;;7.50;99.90;;;;;;5114968;28;20183;-82
2023/04/12 07:28:09;;;;;;;1.63;1.00;;;7.50;99.90;;;;;;5116191;28;20171;-81
2023/04/12 07:30:35;;;;;;;1.20;1.10;;;7.50;99.90;;;;;;5114922;28;20207;-81
2023/04/12 07:33:04;;;;;;;1.67;1.23;;;7.50;99.90;;;;;;5115531;28;20173;-82
2023/04/12 07:35:30;;;;;;;1.90;1.43;;;7.50;99.90;;;;;;5114335;28;20170;-82
2023/04/12 07:37:56;;;;;;;1.70;1.00;;;7.40;99.90;;;;;;5114176;28;20562;-82
2023/04/12 07:40:22;;;;;;;3.17;1.20;;;7.50;99.90;;;;;;5113922;28;20667;-81
2023/04/12 07:42:47;;;;;;;2.07;1.20;;;7.50;99.90;;;;;;5114370;28;20245;-81
2023/04/12 07:45:13;;;;;;;1.17;1.00;;;7.50;99.90;;;;;;5114158;28;20206;-82
2023/04/12 07:47:39;;;;;;;1.33;1.23;;;7.50;99.90;;;;;;5124970;27;20674;-82
2023/04/12 07:50:05;;;;;;;1.20;1.10;;;7.40;99.90;;;;;;5135567;27;20207;-81
2023/04/12 07:52:31;;;;;;;1.10;1.00;;;7.40;99.90;;;;;;5129491;27;20264;-82
2023/04/12 07:54:57;;;;;;;0.90;0.83;;;7.40;99.90;;;;;;5135441;27;20206;-81
2023/04/12 07:57:23;;;;;;;1.30;1.20;;;7.50;99.90;;;;;;5135565;27;20212;-82
2023/04/12 07:59:49;;;;;;;1.17;0.90;;;7.40;99.90;;;;;;5135490;27;20265;-82
2023/04/12 08:02:23;;;;;;;1.40;1.00;;;7.40;99.90;;;;;;5135956;27;20178;-82
2023/04/12 08:04:54;;;;;;;0.83;0.83;;;7.40;99.90;;;;;;5136221;27;20672;-83
2023/04/12 08:07:23;;;;;;;1.23;0.73;;;7.40;99.90;;;;;;5136409;27;20171;-81
2023/04/12 08:09:49;;;;;;;0.80;0.80;;;7.40;99.90;;;;;;5135003;27;20201;-83
2023/04/12 08:12:15;;;;;;;1.47;0.80;;;7.40;99.90;;;;;;5135057;27;20168;-81
2023/04/12 08:14:41;;;;;;;0.67;0.67;;;7.40;99.90;;;;;;5135766;27;20213;-83
2023/04/12 08:17:06;;;;;;;0.70;0.70;;;7.40;99.90;;;;;;5134433;27;20677;-81
2023/04/12 08:19:32;;;;;;;1.37;0.60;;;7.40;99.90;;;;;;5136057;27;20182;-80
2023/04/12 08:21:57;;;;;;;1.33;0.67;;;7.40;99.90;;;;;;5135172;27;20173;-81
2023/04/12 08:24:23;;;;;;;0.93;0.80;;;7.40;99.90;;;;;;5133802;27;20193;-83
2023/04/12 08:26:50;;;;;;;1.43;1.17;;;7.30;99.90;;;;;;5133920;27;20204;-81
2023/04/12 08:29:16;;;;;;;1.13;0.77;;;7.30;99.90;;;;;;5133738;27;20185;-82
2023/04/12 08:31:41;;;;;;;1.10;1.00;;;7.30;99.90;;;;;;5134606;27;20192;-82
2023/04/12 08:34:07;;;;;;;3.03;1.80;;;7.30;99.90;;;;;;5133618;27;20198;-80
2023/04/12 08:36:32;;;;;;;3.27;1.70;;;7.30;99.90;;;;;;5133481;27;20667;-81
2023/04/12 08:38:59;;;;;;;2.20;1.00;;;7.30;99.90;;;;;;5134041;27;20599;-81
2023/04/12 08:41:25;;;;;;;1.23;0.80;;;7.40;99.90;;;;;;5134641;27;20173;-81
2023/04/12 08:43:51;;;;;;;1.97;1.30;;;7.40;99.90;;;;;;5134440;27;20195;-81
2023/04/12 08:46:17;;;;;;;0.70;0.60;;;7.40;99.90;;;;;;5135105;27;20182;-81
2023/04/12 08:48:48;;;;;;;0.83;0.57;;;7.50;99.90;;;;;;5120822;27;20184;-81
2023/04/12 08:51:16;;;;;;;0.50;0.50;;;7.50;99.90;;;;;;5113660;28;20251;-81
2023/04/12 08:53:41;;;;;;;1.17;0.50;;;7.50;99.90;;;;;;5114128;28;20749;-81
2023/04/12 08:56:10;;;;;;;0.40;0.40;;;7.60;99.90;;;;;;5113827;28;20258;-81
2023/04/12 08:58:40;;;;;;;0.40;0.40;;;7.60;99.90;;;;;;5112766;28;20174;-81
2023/04/12 09:01:12;;;;;;;0.50;0.50;;;7.70;99.90;;;;;;5113482;28;20646;-82
2023/04/12 09:03:38;;;;;;;0.70;0.40;;;7.70;99.90;;;;;;5114013;28;20202;-82
2023/04/12 09:06:04;;;;;;;0.50;0.50;;;7.80;99.90;;;;;;5113758;28;20178;-81
2023/04/12 09:08:30;;;;;;;0.60;0.60;;;7.90;99.90;;;;;;5112164;28;20175;-81
2023/04/12 09:10:56;;;;;;;0.73;0.70;;;8.00;99.90;;;;;;5113221;28;20275;-82
2023/04/12 09:13:35;;;;;;;0.50;0.50;;;8.00;99.90;;;;;;5112676;28;20317;-81
2023/04/12 09:16:02;;;;;;;0.57;0.57;;;8.20;99.90;;;;;;5113756;28;20170;-81
2023/04/12 09:18:28;;;;;;;0.70;0.60;;;8.30;99.90;;;;;;5123323;27;20198;-82
2023/04/12 09:21:10;;;;;;;0.53;0.53;;;8.50;99.90;;;;;;5133768;27;20220;-81
2023/04/12 09:23:36;;;;;;;1.17;0.50;;;8.70;99.90;;;;;;5133511;27;20198;-82
2023/04/12 09:26:02;;;;;;;0.40;0.40;;;8.90;99.90;;;;;;5130808;27;20171;-81
2023/04/12 09:28:29;;;;;;;0.60;0.60;;;8.90;99.90;;;;;;5133892;27;20187;-82
2023/04/12 09:30:56;;;;;;;0.77;0.73;;;8.90;99.90;;;;;;5133408;27;20661;-81
2023/04/12 09:33:42;;;;;;;0.70;0.70;;;8.70;99.90;;;;;;5134016;27;20191;-82
2023/04/12 09:36:12;;;;;;;0.67;0.63;;;8.80;99.90;;;;;;5132681;28;20236;-82
2023/04/12 09:38:38;;;;;;;0.70;0.60;;;8.80;99.90;;;;;;5126038;28;20176;-82
2023/04/12 09:41:16;;;;;;;1.37;0.93;;;8.80;99.90;;;;;;5132392;28;20263;-82
2023/04/12 09:43:41;;;;;;;0.60;0.60;;;8.80;99.90;;;;;;5133975;27;20188;-82
2023/04/12 09:46:12;;;;;;;0.70;0.70;;;8.90;99.90;;;;;;5133580;27;20254;-82
2023/04/12 09:48:48;;;;;;;0.77;0.77;;;8.90;99.90;;;;;;5124525;28;20172;-81
2023/04/12 09:51:32;;;;;;;1.17;0.83;;;8.80;99.90;;;;;;5132059;28;20207;-81
2023/04/12 09:54:03;;;;;;;0.90;0.70;;;8.90;99.90;;;;;;5132399;28;20186;-81
2023/04/12 09:56:34;;;;;;;0.70;0.70;;;8.80;99.90;;;;;;5132993;28;20163;-82
2023/04/12 09:59:05;;;;;;;0.77;0.77;;;8.80;99.90;;;;;;5132299;28;20228;-82
2023/04/12 10:01:41;;;;;;;0.70;0.70;;;8.80;99.90;;;;;;5134903;27;20190;-81
2023/04/12 10:04:08;;;;;;;0.63;0.63;;;8.90;99.90;;;;;;5136041;28;20218;-83
2023/04/12 10:06:34;;;;;;;0.97;0.83;;;8.90;99.90;;;;;;5132861;27;20653;-81
2023/04/12 10:09:03;;;;;;;0.73;0.73;;;9.00;99.90;;;;;;5130799;27;20528;-80
2023/04/12 10:11:29;;;;;;;0.63;0.60;;;9.00;99.90;;;;;;5134505;27;20199;-81
2023/04/12 10:13:58;;;;;;;0.90;0.90;;;9.00;99.90;;;;;;5136477;27;20187;-82
2023/04/12 10:16:25;;;;;;;1.10;0.70;;;9.00;99.90;;;;;;5136291;27;20265;-82
2023/04/12 10:18:53;;;;;;;0.70;0.70;;;9.00;99.90;;;;;;5131289;27;20191;-80
2023/04/12 10:21:19;;;;;;;0.80;0.80;;;9.00;99.90;;;;;;5138127;27;20211;-81
2023/04/12 10:23:46;;;;;;;2.27;0.80;;;9.00;99.90;;;;;;5137714;27;20195;-81
2023/04/12 10:26:14;;;;;;;0.80;0.80;;;9.00;99.90;;;;;;5135782;27;20199;-82
2023/04/12 10:28:46;;;;;;;0.80;0.80;;;9.00;99.90;;;;;;5135776;27;20172;-82
2023/04/12 10:31:32;;;;;;;0.93;0.80;;;9.00;99.90;;;;;;5137696;27;20203;-81
2023/04/12 10:34:01;;;;;;;0.87;0.77;;;8.90;99.90;;;;;;5138729;27;20689;-81
2023/04/12 10:36:58;;;;;;;0.90;0.80;;;8.90;99.90;;;;;;5137642;27;20641;-81
2023/04/12 10:39:36;;;;;;;0.83;0.83;;;8.90;99.90;;;;;;5137894;27;20583;-80
2023/04/12 10:42:23;;;;;;;0.83;0.80;;;8.90;99.90;;;;;;5138371;27;20182;-79
2023/04/12 10:44:51;;;;;;;0.80;0.80;;;8.90;99.90;;;;;;5139154;27;20312;-80
2023/04/12 10:47:48;;;;;;;0.73;0.73;;;9.00;99.90;;;;;;5138692;27;20662;-79
2023/04/12 10:50:24;;;;;;;0.97;0.77;;;9.10;99.90;;;;;;5135590;27;20199;-81
2023/04/12 10:53:11;;;;;;;0.70;0.70;;;9.10;99.90;;;;;;5136637;27;20170;-82
2023/04/12 10:55:41;;;;;;;0.90;0.80;;;9.10;99.90;;;;;;5135166;27;20560;-82
2023/04/12 10:58:07;;;;;;;0.80;0.53;;;9.00;99.90;;;;;;5136181;27;20173;-81
2023/04/12 11:00:55;;;;;;;0.70;0.70;;;9.00;99.90;;;;;;5136023;27;20181;-83
2023/04/12 11:03:21;;;;;;;0.70;0.70;;;9.00;99.90;;;;;;5134760;27;20200;-82
2023/04/12 11:06:03;;;;;;;0.70;0.70;;;9.00;99.90;;;;;;5134801;27;20171;-82
2023/04/12 11:08:30;;;;;;;0.50;0.50;;;9.00;99.90;;;;;;5134872;27;20171;-82
2023/04/12 11:11:04;;;;;;;0.90;0.80;;;9.00;99.90;;;;;;5135085;27;20287;-82
2023/04/12 11:13:37;;;;;;;0.97;0.80;;;9.00;99.90;;;;;;5135948;27;20262;-82
2023/04/12 11:16:05;;;;;;;1.00;0.80;;;9.10;99.90;;;;;;5136134;27;20194;-82
2023/04/12 11:18:34;;;;;;;0.80;0.80;;;9.10;99.90;;;;;;5135110;27;20178;-82
2023/04/12 11:21:01;;;;;;;0.80;0.80;;;9.10;99.90;;;;;;5135595;27;20200;-81
2023/04/12 11:23:27;;;;;;;0.80;0.80;;;9.10;99.90;;;;;;5135434;27;20199;-82
2023/04/12 11:25:53;;;;;;;0.83;0.70;;;9.10;99.90;;;;;;5134918;27;20228;-82
2023/04/12 11:28:20;;;;;;;0.80;0.80;;;9.10;99.90;;;;;;5134494;27;20213;-82
2023/04/12 11:30:52;;;;;;;0.70;0.70;;;9.10;99.90;;;;;;5134085;27;20232;-82
2023/04/12 11:33:35;;;;;;;0.97;0.83;;;9.00;99.90;;;;;;5134476;27;20216;-82
2023/04/12 11:36:06;;;;;;;1.10;0.90;;;9.00;99.90;;;;;;5135786;27;20156;-82
2023/04/12 11:38:34;;;;;;;0.70;0.70;;;9.10;99.90;;;;;;5135422;27;20716;-82
2023/04/12 11:41:00;;;;;;;0.80;0.80;;;9.10;99.90;;;;;;5135081;27;20175;-81
2023/04/12 11:43:26;;;;;;;0.90;0.80;;;9.10;99.90;;;;;;5135887;27;20203;-81
2023/04/12 11:45:57;;;;;;;0.80;0.80;;;9.10;99.90;;;;;;5135801;27;20167;-82
2023/04/12 11:48:23;;;;;;;0.80;0.80;;;9.10;99.90;;;;;;5133968;27;20174;-81
2023/04/12 11:50:48;;;;;;;1.13;0.87;;;9.20;99.90;;;;;;5133797;27;20200;-81
2023/04/12 11:53:18;;;;;;;0.80;0.80;;;9.20;99.90;;;;;;5134697;27;20183;-82
2023/04/12 11:55:53;;;;;;;0.90;0.90;;;9.20;99.90;;;;;;5134334;27;20172;-80
2023/04/12 11:58:22;;;;;;;0.70;0.70;;;9.20;99.90;;;;;;5138474;27;20201;-80
2023/04/12 12:00:49;;;;;;;1.30;1.20;;;9.30;99.90;;;;;;5138572;27;20559;-80
2023/04/12 12:03:15;;;;;;;1.57;1.00;;;9.40;99.90;;;;;;5138531;27;20200;-80
2023/04/12 12:05:41;;;;;;;1.20;0.90;;;9.50;99.90;;;;;;5139829;27;20175;-80
2023/04/12 12:08:07;;;;;;;1.00;0.90;;;9.50;99.90;;;;;;5139730;27;20251;-80
2023/04/12 12:10:38;;;;;;;0.80;0.80;;;9.60;99.90;;;;;;5137775;27;20200;-80
2023/04/12 12:13:10;;;;;;;0.90;0.90;;;9.70;99.90;;;;;;5139652;27;20599;-80
2023/04/12 12:15:35;;;;;;;1.10;1.00;;;9.60;99.90;;;;;;5139388;27;20173;-80
2023/04/12 12:18:01;;;;;;;0.70;0.70;;;9.60;99.90;;;;;;5138918;27;20174;-80
2023/04/12 12:20:27;;;;;;;1.10;1.00;;;9.60;99.90;;;;;;5137918;27;20165;-81
2023/04/12 12:22:53;;;;;;;1.10;0.80;;;9.60;99.90;;;;;;5134564;27;20252;-81
2023/04/12 12:25:18;;;;;;;0.80;0.80;;;9.60;99.90;;;;;;5138439;27;20177;-80
2023/04/12 12:27:47;;;;;;;1.00;0.80;;;9.60;99.90;;;;;;5134714;27;20174;-82
2023/04/12 12:30:17;;;;;;;1.10;1.00;;;9.70;99.90;;;;;;5113528;28;20284;-82
2023/04/12 12:32:43;;;;;;;1.00;0.90;;;9.70;99.90;;;;;;5114324;28;20184;-82
2023/04/12 12:35:12;;;;;;;1.03;0.90;;;9.70;99.90;;;;;;5111857;28;20180;-83
2023/04/12 12:37:49;;;;;;;1.10;1.00;;;9.70;99.90;;;;;;5112794;28;20166;-83
2023/04/12 12:40:15;;;;;;;0.83;0.80;;;9.70;99.90;;;;;;5116170;27;20172;-83
2023/04/12 12:42:49;;;;;;;1.30;1.10;;;9.70;99.90;;;;;;5134984;27;20164;-80
2023/04/12 12:45:17;;;;;;;2.23;0.97;;;9.70;99.90;;;;;;5135905;27;20168;-79
2023/04/12 12:47:54;;;;;;;1.00;0.90;;;9.80;99.90;;;;;;5136574;27;20168;-79
2023/04/12 12:50:25;;;;;;;1.10;1.00;;;10.00;99.90;;;;;;5136707;27;20200;-80
2023/04/12 12:52:51;;;;;;;1.20;1.10;;;10.00;99.90;;;;;;5135391;27;20216;-80
2023/04/12 12:55:17;;;;;;;1.20;1.10;;;9.90;99.90;;;;;;5137581;27;20172;-80
2023/04/12 12:57:44;;;;;;;1.10;1.00;;;9.90;99.90;;;;;;5119729;27;20236;-79
2023/04/12 13:00:13;;;;;;;1.50;1.10;;;9.90;99.90;;;;;;5133287;27;20678;-80
2023/04/12 13:02:39;;;;;;;1.43;1.03;;;9.80;99.90;;;;;;5136708;27;20170;-79